createdAt,value
2023-01-04T00:01:29.429Z,3.57
2023-01-04T00:03:56.730Z,3.50
2023-01-04T00:06:23.931Z,3.63
2023-01-04T00:08:51.198Z,4.47
2023-01-04T00:11:22.992Z,6.30
2023-01-04T00:13:53.774Z,3.77
2023-01-04T00:16:24.902Z,5.67
2023-01-04T00:18:54.289Z,3.80
2023-01-04T00:21:25.647Z,5.43
2023-01-04T00:23:57.914Z,4.77
2023-01-04T00:26:29.488Z,4.50
2023-01-04T00:29:03.310Z,3.03
2023-01-04T00:31:31.012Z,4.47
2023-01-04T00:34:01.925Z,5.63
2023-01-04T00:36:30.497Z,4.90
2023-01-04T00:39:10.623Z,3.40
2023-01-04T00:44:26.234Z,4.23
2023-01-04T00:46:54.055Z,5.77
2023-01-04T00:49:21.373Z,3.83
2023-01-04T00:51:48.683Z,2.67
2023-01-04T00:54:16.709Z,4.87
2023-01-04T00:56:44.730Z,4.93
2023-01-04T00:59:15.826Z,4.77
2023-01-04T01:01:44.467Z,4.07
2023-01-04T01:04:18.612Z,4.77
2023-01-04T01:06:46.389Z,5.90
2023-01-04T01:09:14.167Z,5.30
2023-01-04T01:11:41.959Z,3.30
2023-01-04T01:14:17.243Z,3.57
2023-01-04T01:16:54.860Z,3.00
2023-01-04T01:19:23.832Z,4.10
2023-01-04T01:21:51.084Z,3.23
2023-01-04T01:24:20.621Z,2.63
2023-01-04T01:26:47.991Z,3.60
2023-01-04T01:29:16.179Z,5.63
2023-01-04T01:31:45.582Z,4.50
2023-01-04T01:34:13.116Z,2.73
2023-01-04T01:36:40.411Z,3.77
2023-01-04T01:39:08.077Z,4.97
2023-01-04T01:41:36.251Z,4.20
2023-01-04T01:44:27.685Z,4.33
2023-01-04T01:46:56.053Z,2.83
2023-01-04T01:49:34.286Z,4.17
2023-01-04T01:52:16.055Z,4.87
2023-01-04T01:54:52.376Z,3.03
2023-01-04T01:57:25.519Z,3.07
2023-01-04T01:59:59.578Z,2.87
2023-01-04T02:02:27.069Z,4.53
2023-01-04T02:04:56.075Z,4.40
2023-01-04T02:07:27.842Z,2.50
2023-01-04T02:09:57.013Z,3.57
2023-01-04T02:12:25.612Z,2.97
2023-01-04T02:14:52.976Z,2.70
2023-01-04T02:17:47.222Z,2.73
2023-01-04T02:20:55.239Z,1.97
2023-01-04T02:24:03.631Z,3.20
2023-01-04T02:26:48.722Z,2.60
2023-01-04T02:29:36.779Z,3.90
2023-01-04T02:32:37.517Z,3.97
2023-01-04T02:35:41.479Z,2.23
2023-01-04T02:38:31.021Z,2.47
2023-01-04T02:41:10.849Z,2.87
2023-01-04T02:44:26.052Z,1.97
2023-01-04T02:47:07.969Z,2.97
2023-01-04T02:49:55.665Z,4.00
2023-01-04T02:52:26.751Z,3.93
2023-01-04T02:54:57.696Z,1.83
2023-01-04T02:57:45.849Z,2.33
2023-01-04T03:01:30.514Z,1.20
2023-01-04T03:05:07.164Z,2.20
2023-01-04T03:07:53.627Z,2.17
2023-01-04T03:10:35.556Z,1.30
2023-01-04T03:13:19.944Z,1.90
2023-01-04T03:15:55.878Z,1.40
2023-01-04T03:18:32.615Z,1.67
2023-01-04T03:21:04.699Z,3.13
2023-01-04T03:23:57.768Z,1.30
2023-01-04T03:26:54.253Z,1.47
2023-01-04T03:30:20.859Z,1.77
2023-01-04T03:33:22.634Z,1.63
2023-01-04T03:36:36.952Z,2.70
2023-01-04T03:39:39.048Z,0.87
2023-01-04T03:43:16.954Z,1.57
2023-01-04T03:46:13.696Z,1.60
2023-01-04T03:48:54.577Z,0.97
2023-01-04T03:51:36.093Z,1.23
2023-01-04T03:54:15.979Z,1.17
2023-01-04T03:56:45.908Z,1.10
2023-01-04T03:59:14.253Z,1.00
2023-01-04T04:01:44.558Z,0.80
2023-01-04T04:04:30.497Z,0.87
2023-01-04T04:07:16.278Z,1.03
2023-01-04T04:09:43.502Z,1.13
2023-01-04T04:12:10.788Z,0.97
2023-01-04T04:14:38.118Z,0.80
2023-01-04T04:17:05.532Z,1.53
2023-01-04T04:19:32.806Z,1.10
2023-01-04T04:22:00.119Z,1.17
2023-01-04T04:24:30.078Z,0.60
2023-01-04T04:26:57.422Z,0.70
2023-01-04T04:29:25.542Z,0.70
2023-01-04T04:31:53.179Z,0.63
2023-01-04T04:34:20.492Z,1.10
2023-01-04T04:36:47.683Z,1.13
2023-01-04T04:39:15.351Z,1.33
2023-01-04T04:41:42.624Z,0.80
2023-01-04T04:44:17.236Z,1.30
2023-01-04T04:46:45.942Z,1.10
2023-01-04T04:49:14.360Z,1.30
2023-01-04T04:51:43.515Z,0.70
2023-01-04T04:54:15.497Z,1.10
2023-01-04T04:56:42.658Z,0.67
2023-01-04T04:59:10.001Z,0.60
2023-01-04T05:01:37.493Z,0.70
2023-01-04T05:04:05.180Z,1.67
2023-01-04T05:06:33.153Z,1.60
2023-01-04T05:09:00.662Z,1.30
2023-01-04T05:11:46.404Z,0.83
2023-01-04T05:14:13.554Z,0.70
2023-01-04T05:16:41.013Z,3.27
2023-01-04T05:19:08.423Z,0.80
2023-01-04T05:21:35.811Z,1.73
2023-01-04T05:24:03.098Z,0.70
2023-01-04T05:26:30.318Z,1.53
2023-01-04T05:28:57.647Z,1.40
2023-01-04T05:31:26.448Z,1.27
2023-01-04T05:33:53.776Z,0.87
2023-01-04T05:36:21.109Z,0.90
2023-01-04T05:38:48.415Z,0.93
2023-01-04T05:41:34.113Z,0.83
2023-01-04T05:44:01.289Z,0.90
2023-01-04T05:46:28.775Z,1.07
2023-01-04T05:48:56.014Z,1.93
2023-01-04T05:51:23.277Z,1.47
2023-01-04T05:53:50.444Z,1.70
2023-01-04T05:56:17.687Z,1.00
2023-01-04T05:58:44.812Z,1.17
2023-01-04T06:01:12.693Z,0.87
2023-01-04T06:03:40.000Z,1.30
2023-01-04T06:06:07.343Z,1.13
2023-01-04T06:08:34.697Z,0.93
2023-01-04T06:11:02.035Z,0.70
2023-01-04T06:13:29.318Z,1.20
2023-01-04T06:15:56.732Z,1.30
2023-01-04T06:18:25.137Z,1.20
2023-01-04T06:20:52.484Z,2.10
2023-01-04T06:23:19.713Z,1.33
2023-01-04T06:25:46.891Z,1.33
2023-01-04T06:28:14.104Z,0.93
2023-01-04T06:30:41.476Z,1.10
2023-01-04T06:33:08.837Z,1.27
2023-01-04T06:35:36.181Z,1.10
2023-01-04T06:38:03.505Z,0.70
2023-01-04T06:40:30.686Z,1.20
2023-01-04T06:42:57.878Z,1.30
2023-01-04T06:45:46.056Z,1.20
2023-01-04T06:48:18.176Z,1.33
2023-01-04T06:50:46.098Z,1.27
2023-01-04T06:53:13.256Z,0.93
2023-01-04T06:55:40.558Z,1.13
2023-01-04T06:58:07.802Z,1.00
2023-01-04T07:00:38.152Z,1.27
2023-01-04T07:03:14.688Z,0.97
2023-01-04T07:05:43.963Z,1.00
2023-01-04T07:08:12.171Z,0.97
2023-01-04T07:10:43.573Z,1.67
2023-01-04T07:13:11.496Z,1.83
2023-01-04T07:15:40.803Z,1.93
2023-01-04T07:18:10.694Z,1.20
2023-01-04T07:20:38.925Z,0.90
2023-01-04T07:23:07.714Z,0.87
2023-01-04T07:25:35.656Z,1.20
2023-01-04T07:28:03.656Z,1.87
2023-01-04T07:30:31.041Z,1.23
2023-01-04T07:32:58.640Z,1.40
2023-01-04T07:35:26.470Z,1.20
2023-01-04T07:37:58.179Z,1.20
2023-01-04T07:40:26.656Z,1.73
2023-01-04T07:42:59.167Z,1.10
2023-01-04T07:45:27.894Z,2.03
2023-01-04T07:47:55.297Z,1.20
2023-01-04T07:50:22.598Z,2.03
2023-01-04T07:52:49.890Z,2.20
2023-01-04T07:55:17.281Z,1.07
2023-01-04T07:57:44.611Z,0.93
2023-01-04T08:00:13.026Z,1.40
2023-01-04T08:02:40.793Z,1.17
2023-01-04T08:05:08.636Z,1.20
2023-01-04T08:07:36.086Z,1.43
2023-01-04T08:10:03.449Z,1.87
2023-01-04T08:12:30.875Z,2.30
2023-01-04T08:14:58.041Z,1.87
2023-01-04T08:17:25.245Z,2.90
2023-01-04T08:19:52.581Z,1.43
2023-01-04T08:22:19.951Z,1.23
2023-01-04T08:24:47.342Z,2.10
2023-01-04T08:27:14.699Z,1.77
2023-01-04T08:29:42.090Z,1.93
2023-01-04T08:32:09.447Z,1.37
2023-01-04T08:34:36.977Z,2.37
2023-01-04T08:37:04.313Z,1.50
2023-01-04T08:39:35.654Z,1.87
2023-01-04T08:42:19.325Z,1.87
2023-01-04T08:44:48.131Z,2.20
2023-01-04T08:47:15.535Z,1.77
2023-01-04T08:49:43.291Z,1.30
2023-01-04T08:52:11.922Z,1.87
2023-01-04T08:54:39.246Z,1.40
2023-01-04T08:57:06.490Z,2.00
2023-01-04T08:59:33.903Z,2.80
2023-01-04T09:02:05.124Z,1.60
2023-01-04T09:04:33.717Z,2.00
2023-01-04T09:07:01.162Z,1.37
2023-01-04T09:09:30.467Z,2.83
2023-01-04T09:11:59.873Z,2.47
2023-01-04T09:14:27.559Z,1.37
2023-01-04T09:16:54.969Z,1.33
2023-01-04T09:19:22.749Z,2.70
2023-01-04T09:21:50.611Z,3.23
2023-01-04T09:24:18.034Z,1.23
2023-01-04T09:26:47.651Z,1.80
2023-01-04T09:29:15.034Z,1.93
2023-01-04T09:31:42.918Z,2.27
2023-01-04T09:34:14.701Z,2.83
2023-01-04T09:36:44.030Z,2.23
2023-01-04T09:39:20.850Z,2.10
2023-01-04T09:42:40.949Z,1.50
2023-01-04T09:45:26.962Z,1.53
2023-01-04T09:48:10.153Z,2.10
2023-01-04T09:51:00.945Z,1.27
2023-01-04T09:53:42.401Z,1.87
2023-01-04T09:56:26.067Z,1.67
2023-01-04T09:58:55.453Z,1.90
2023-01-04T10:01:29.474Z,3.33
2023-01-04T10:04:20.187Z,2.83
2023-01-04T10:06:48.016Z,1.10
2023-01-04T10:09:17.462Z,1.43
2023-01-04T10:12:03.538Z,1.50
2023-01-04T10:14:43.440Z,1.13
2023-01-04T10:19:50.379Z,1.90
2023-01-04T10:21:32.920Z,1.67
2023-01-04T10:24:20.840Z,2.50
2023-01-04T10:26:54.673Z,2.53
2023-01-04T10:29:36.872Z,2.80
2023-01-04T10:32:14.719Z,2.77
2023-01-04T10:34:47.177Z,2.07
2023-01-04T10:37:21.940Z,1.30
2023-01-04T10:39:55.914Z,1.57
2023-01-04T10:42:35.242Z,3.00
2023-01-04T10:45:27.472Z,2.17
2023-01-04T10:48:29.704Z,2.50
2023-01-04T10:51:10.173Z,2.13
2023-01-04T10:53:58.681Z,1.97
2023-01-04T10:56:41.845Z,1.10
2023-01-04T10:59:26.421Z,1.67
2023-01-04T11:02:09.125Z,3.17
2023-01-04T11:04:56.812Z,1.43
2023-01-04T11:07:54.060Z,1.20
2023-01-04T11:10:51.846Z,1.63
2023-01-04T11:13:19.363Z,2.83
2023-01-04T11:15:48.138Z,1.43
2023-01-04T11:18:17.244Z,1.83
2023-01-04T11:20:44.866Z,2.40
2023-01-04T11:23:18.845Z,1.70
2023-01-04T11:25:57.732Z,3.20
2023-01-04T11:28:43.519Z,2.17
2023-01-04T11:31:41.269Z,1.60
2023-01-04T11:34:08.535Z,2.03
2023-01-04T11:36:44.286Z,1.27
2023-01-04T11:39:31.429Z,1.80
2023-01-04T11:42:04.845Z,2.77
2023-01-04T11:44:36.680Z,1.90
2023-01-04T11:47:26.790Z,2.20
2023-01-04T11:49:56.529Z,2.10
2023-01-04T11:52:37.323Z,1.23
2023-01-04T11:55:24.551Z,1.57
2023-01-04T11:58:13.040Z,1.30
2023-01-04T12:00:55.408Z,1.30
2023-01-04T12:03:38.777Z,1.57
2023-01-04T12:06:56.984Z,1.20
2023-01-04T12:09:24.326Z,1.73
2023-01-04T12:12:00.346Z,1.37
2023-01-04T12:14:37.329Z,1.00
2023-01-04T12:17:25.459Z,2.10
2023-01-04T12:19:58.407Z,0.80
2023-01-04T12:22:40.180Z,0.70
2023-01-04T12:25:32.795Z,1.07
2023-01-04T12:28:00.432Z,1.37
2023-01-04T12:30:45.839Z,1.13
2023-01-04T12:33:34.036Z,1.70
2023-01-04T12:36:09.949Z,1.17
2023-01-04T12:38:55.332Z,1.13
2023-01-04T12:41:25.717Z,0.80
2023-01-04T12:43:53.634Z,2.60
2023-01-04T12:47:00.609Z,1.17
2023-01-04T12:49:28.079Z,1.00
2023-01-04T12:55:01.974Z,0.93
2023-01-04T12:57:46.043Z,1.10
2023-01-04T13:00:16.246Z,0.80
2023-01-04T13:03:09.296Z,0.67
2023-01-04T13:05:55.860Z,0.77
2023-01-04T13:08:24.676Z,0.77
2023-01-04T13:10:55.785Z,1.00
2023-01-04T13:14:08.460Z,1.07
2023-01-04T13:17:22.938Z,1.50
2023-01-04T13:19:50.975Z,0.90
2023-01-04T13:22:30.122Z,1.60
2023-01-04T13:25:01.903Z,1.10
2023-01-04T13:27:29.327Z,0.70
2023-01-04T13:29:56.863Z,0.87
2023-01-04T13:32:28.625Z,0.73
2023-01-04T13:35:13.641Z,1.43
2023-01-04T13:37:49.804Z,0.70
2023-01-04T13:40:37.701Z,1.03
2023-01-04T13:43:46.479Z,0.97
2023-01-04T13:46:26.966Z,0.90
2023-01-04T13:49:02.828Z,0.90
2023-01-04T13:51:38.141Z,0.93
2023-01-04T13:54:19.844Z,0.73
2023-01-04T13:56:53.504Z,0.77
2023-01-04T13:59:23.216Z,1.13
2023-01-04T14:01:51.511Z,1.00
2023-01-04T14:04:31.787Z,0.87
2023-01-04T14:07:02.135Z,0.80
2023-01-04T14:09:43.723Z,2.53
2023-01-04T14:12:22.629Z,0.80
2023-01-04T14:14:58.805Z,1.03
2023-01-04T14:17:56.363Z,1.80
2023-01-04T14:20:23.579Z,2.90
2023-01-04T14:22:58.563Z,0.70
2023-01-04T14:25:36.168Z,1.47
2023-01-04T14:28:27.380Z,1.60
2023-01-04T14:31:20.782Z,1.00
2023-01-04T14:33:53.984Z,1.00
2023-01-04T14:36:30.504Z,0.70
2023-01-04T14:39:06.948Z,0.63
2023-01-04T14:41:43.867Z,0.70
2023-01-04T14:44:22.176Z,0.87
2023-01-04T14:46:55.669Z,1.07
2023-01-04T14:49:23.689Z,1.23
2023-01-04T14:52:00.230Z,1.70
2023-01-04T14:54:30.355Z,1.00
2023-01-04T14:56:59.106Z,2.27
2023-01-04T14:59:27.517Z,1.50
2023-01-04T15:01:57.545Z,1.10
2023-01-04T15:04:25.793Z,1.83
2023-01-04T15:07:00.187Z,1.97
2023-01-04T15:09:28.923Z,1.57
2023-01-04T15:11:56.992Z,1.27
2023-01-04T15:14:24.869Z,3.90
2023-01-04T15:16:52.164Z,2.17
2023-01-04T15:19:19.415Z,3.03
2023-01-04T15:21:46.704Z,1.50
2023-01-04T15:24:13.951Z,1.67
2023-01-04T15:26:41.301Z,1.70
2023-01-04T15:29:08.887Z,1.73
2023-01-04T15:31:39.712Z,2.83
2023-01-04T15:34:09.233Z,2.67
2023-01-04T15:36:38.899Z,2.33
2023-01-04T15:39:07.451Z,5.27
2023-01-04T15:41:53.317Z,4.33
2023-01-04T15:44:20.623Z,2.47
2023-01-04T15:46:48.089Z,4.50
2023-01-04T15:49:17.859Z,3.23
2023-01-04T15:51:46.534Z,3.40
2023-01-04T15:54:14.195Z,2.80
2023-01-04T15:56:43.426Z,4.20
2023-01-04T15:59:10.571Z,3.87
2023-01-04T16:01:37.815Z,3.43
2023-01-04T16:04:07.149Z,2.57
2023-01-04T16:06:34.651Z,3.97
2023-01-04T16:09:02.154Z,2.93
2023-01-04T16:11:29.628Z,1.47
2023-01-04T16:13:57.209Z,2.37
2023-01-04T16:16:30.483Z,2.47
2023-01-04T16:18:58.251Z,2.53
2023-01-04T16:21:28.964Z,2.00
2023-01-04T16:24:07.201Z,1.87
2023-01-04T16:26:40.581Z,1.20
2023-01-04T16:29:08.088Z,1.73
2023-01-04T16:31:37.723Z,1.87
2023-01-04T16:34:06.260Z,1.43
2023-01-04T16:36:33.657Z,2.33
2023-01-04T16:39:02.522Z,1.90
2023-01-04T16:41:30.096Z,2.67
2023-01-04T16:44:02.137Z,2.50
2023-01-04T16:46:32.307Z,2.77
2023-01-04T16:49:07.549Z,2.07
2023-01-04T16:51:37.767Z,2.00
2023-01-04T16:54:08.826Z,2.77
2023-01-04T16:56:36.759Z,1.87
2023-01-04T16:59:05.156Z,2.13
2023-01-04T17:01:37.573Z,1.97
2023-01-04T17:04:10.468Z,2.57
2023-01-04T17:06:44.315Z,1.90
2023-01-04T17:09:20.192Z,3.47
2023-01-04T17:14:45.453Z,3.97
2023-01-04T17:17:13.151Z,4.47
2023-01-04T17:19:40.499Z,7.03
2023-01-04T17:22:07.707Z,5.73
2023-01-04T17:24:35.027Z,6.33
2023-01-04T17:27:02.277Z,7.27
2023-01-04T17:29:29.693Z,5.77
2023-01-04T17:31:57.108Z,6.93
2023-01-04T17:34:24.531Z,6.27
2023-01-04T17:36:51.909Z,7.90
2023-01-04T17:39:21.094Z,6.70
2023-01-04T17:41:48.377Z,6.60
2023-01-04T17:44:15.869Z,9.07
2023-01-04T17:46:43.512Z,8.00
2023-01-04T17:49:31.845Z,6.87
2023-01-04T17:52:00.319Z,7.87
2023-01-04T17:54:27.644Z,10.13
2023-01-04T17:56:55.160Z,7.80
2023-01-04T17:59:22.302Z,9.97
2023-01-04T18:01:49.704Z,9.77
2023-01-04T18:04:17.181Z,13.53
2023-01-04T18:06:44.372Z,11.33
2023-01-04T18:09:14.378Z,11.63
2023-01-04T18:11:44.681Z,10.67
2023-01-04T18:14:14.290Z,10.43
2023-01-04T18:16:58.000Z,8.93
2023-01-04T18:19:30.813Z,12.00
2023-01-04T18:21:58.798Z,8.67
2023-01-04T18:24:41.951Z,11.83
2023-01-04T18:27:23.260Z,11.83
2023-01-04T18:29:54.319Z,12.27
2023-01-04T18:32:23.964Z,10.00
2023-01-04T18:34:51.289Z,15.67
2023-01-04T18:37:19.234Z,15.43
2023-01-04T18:39:48.175Z,16.53
2023-01-04T18:42:15.653Z,13.73
2023-01-04T18:44:47.832Z,12.13
2023-01-04T18:47:21.050Z,13.00
2023-01-04T18:49:51.794Z,13.90
2023-01-04T18:52:20.117Z,13.67
2023-01-04T18:54:48.799Z,12.37
2023-01-04T18:57:16.412Z,12.70
2023-01-04T18:59:43.794Z,14.10
2023-01-04T19:02:20.811Z,16.10
2023-01-04T19:04:48.441Z,17.33
2023-01-04T19:07:15.838Z,16.87
2023-01-04T19:09:45.278Z,16.70
2023-01-04T19:12:13.101Z,15.40
2023-01-04T19:14:41.968Z,12.30
2023-01-04T19:17:10.733Z,13.77
2023-01-04T19:19:37.954Z,17.57
2023-01-04T19:22:05.617Z,17.40
2023-01-04T19:24:32.951Z,19.43
2023-01-04T19:27:03.588Z,14.97
2023-01-04T19:29:32.839Z,18.37
2023-01-04T19:32:00.126Z,17.37
2023-01-04T19:34:48.254Z,19.87
2023-01-04T19:37:15.379Z,17.07
2023-01-04T19:39:42.621Z,16.33
2023-01-04T19:42:09.838Z,18.37
2023-01-04T19:44:37.293Z,14.63
2023-01-04T19:47:04.809Z,15.10
2023-01-04T19:49:32.092Z,18.33
2023-01-04T19:52:00.472Z,18.80
2023-01-04T19:54:27.777Z,15.37
2023-01-04T19:56:55.065Z,19.13
2023-01-04T19:59:23.128Z,15.97
2023-01-04T20:01:50.737Z,15.93
2023-01-04T20:04:18.276Z,16.47
2023-01-04T20:06:45.581Z,16.43
2023-01-04T20:09:12.991Z,15.77
2023-01-04T20:11:40.198Z,13.67
2023-01-04T20:14:07.440Z,15.50
2023-01-04T20:16:34.847Z,16.23
2023-01-04T20:19:02.107Z,16.53
2023-01-04T20:21:29.345Z,14.83
2023-01-04T20:23:56.586Z,14.03
2023-01-04T20:26:24.110Z,19.40
2023-01-04T20:28:52.168Z,18.30
2023-01-04T20:31:20.231Z,16.63
2023-01-04T20:33:48.187Z,13.97
2023-01-04T20:36:22.184Z,16.80
2023-01-04T20:38:50.378Z,16.90
2023-01-04T20:41:22.227Z,16.73
2023-01-04T20:43:50.777Z,15.87
2023-01-04T20:46:21.817Z,18.83
2023-01-04T20:48:49.787Z,12.40
2023-01-04T20:51:22.069Z,17.27
2023-01-04T20:53:50.189Z,17.93
2023-01-04T20:56:27.477Z,16.70
2023-01-04T20:58:55.958Z,13.60
2023-01-04T21:01:23.733Z,16.20
2023-01-04T21:03:51.493Z,13.53
2023-01-04T21:06:20.022Z,16.87
2023-01-04T21:08:47.787Z,15.90
2023-01-04T21:11:15.763Z,14.30
2023-01-04T21:13:43.348Z,13.47
2023-01-04T21:16:11.736Z,16.60
2023-01-04T21:18:39.098Z,16.03
2023-01-04T21:21:15.852Z,15.83
2023-01-04T21:23:44.564Z,18.97
2023-01-04T21:26:18.664Z,15.33
2023-01-04T21:28:47.063Z,16.67
2023-01-04T21:31:24.251Z,18.60
2023-01-04T21:33:53.903Z,17.90
2023-01-04T21:36:25.572Z,18.17
2023-01-04T21:38:56.191Z,16.27
2023-01-04T21:41:25.196Z,17.03
2023-01-04T21:43:56.331Z,16.00
2023-01-04T21:46:25.087Z,17.87
2023-01-04T21:48:59.408Z,15.97
2023-01-04T21:51:26.768Z,13.93
2023-01-04T21:53:54.631Z,17.63
2023-01-04T21:56:24.364Z,19.63
2023-01-04T21:58:52.196Z,17.43
2023-01-04T22:01:24.365Z,15.83
2023-01-04T22:03:52.911Z,15.03
2023-01-04T22:06:21.295Z,17.37
2023-01-04T22:08:48.845Z,20.40
2023-01-04T22:11:19.957Z,17.60
2023-01-04T22:13:47.261Z,15.27
2023-01-04T22:16:16.222Z,16.33
2023-01-04T22:18:50.925Z,20.83
2023-01-04T22:21:26.834Z,16.97
2023-01-04T22:23:54.904Z,16.37
2023-01-04T22:26:22.173Z,19.30
2023-01-04T22:28:49.416Z,19.23
2023-01-04T22:31:16.991Z,14.57
2023-01-04T22:33:44.413Z,16.83
2023-01-04T22:36:22.344Z,14.80
2023-01-04T22:38:53.610Z,17.93
2023-01-04T22:41:23.294Z,16.40
2023-01-04T22:43:59.610Z,13.97
2023-01-04T22:46:28.696Z,16.70
2023-01-04T22:48:57.024Z,15.53
2023-01-04T22:51:27.701Z,15.20
2023-01-04T22:53:57.793Z,17.23
2023-01-04T22:56:26.216Z,14.70
2023-01-04T22:58:56.405Z,20.60
2023-01-04T23:01:33.341Z,16.70
2023-01-04T23:04:03.486Z,14.93
2023-01-04T23:06:32.265Z,18.07
2023-01-04T23:09:02.233Z,14.17
2023-01-04T23:11:32.607Z,15.03
2023-01-04T23:14:02.273Z,14.87
2023-01-04T23:16:33.234Z,15.23
2023-01-04T23:19:05.941Z,14.93
2023-01-04T23:21:34.895Z,14.97
2023-01-04T23:24:02.656Z,13.93
2023-01-04T23:26:32.288Z,18.10
2023-01-04T23:29:01.300Z,13.07
2023-01-04T23:31:31.637Z,16.77
2023-01-04T23:34:03.267Z,15.13
2023-01-04T23:36:37.173Z,13.93
2023-01-04T23:39:13.168Z,14.90
2023-01-04T23:41:46.710Z,14.00
2023-01-04T23:44:28.830Z,15.00
2023-01-04T23:47:07.269Z,18.93
2023-01-04T23:49:39.875Z,17.73
2023-01-04T23:52:08.409Z,14.10
2023-01-04T23:54:35.664Z,16.30
2023-01-04T23:57:03.944Z,13.93
2023-01-04T23:59:31.612Z,13.97
